If you wish to contribute or participate in the discussions about articles you are invited to join SKYbrary as a registered user

 Actions

Bergerac-Roumanière Airport

From SKYbrary Wiki

LFBE
Airport
ICAO: LFBE – IATA: EGC
Summary
Name Bergerac-Roumanière Airport
Region Europe
Territory France FR.gif
Location , Aquitaine
Serving Bergerac
Elevation 52.121 m
171 ft
171 ft52.121 m
Type medium airport
Coordinates 44° 49' 31.00" N, 0° 31' 7.00" E
Runways
Designator Length Width Surface ROPS
10/28 2205 m7,234.252 ft
45 m147.638 ft
ASP yes/yes


METAR
Observation LFBE 061700Z AUTO 30008KT 9999 FEW021/// SCT030/// OVC054/// ///TCU 18/13 Q1008
Station Bergerac
Date/Time 06 June 2020 17:00:00
Wind direction 300°
Wind speed 08 kts
Lowest cloud amount few clouds
Temperature 18°C
Dew point 13°C
Humidity 72%
QNH 1008 hPa
Weather condition n/a